createdAt,value
2016-04-27T09:49:29.577Z,28.22
2016-04-27T09:51:11.146Z,28.33
2016-04-27T09:52:11.163Z,27.27
2016-04-27T09:53:12.026Z,25.01
2016-04-27T09:54:11.201Z,24.99
2016-04-27T09:55:11.234Z,25.19
2016-04-27T09:56:11.251Z,24.99
2016-04-27T09:57:11.271Z,25.01
2016-04-27T09:58:11.304Z,24.81
2016-04-27T09:59:11.339Z,25.01
2016-04-27T10:00:11.373Z,24.72
2016-04-27T10:01:11.390Z,25.01
2016-04-27T10:02:11.409Z,24.91
2016-04-27T10:03:11.615Z,24.91
2016-04-27T10:04:11.445Z,25.01
2016-04-27T10:05:11.464Z,24.91
2016-04-27T10:06:11.483Z,24.91
2016-04-27T10:07:11.517Z,24.43
2016-04-27T10:08:11.550Z,24.34
2016-04-27T10:09:11.568Z,24.33
2016-04-27T10:10:11.587Z,24.23
2016-04-27T10:11:11.621Z,23.86
2016-04-27T10:12:11.638Z,23.96
2016-04-27T10:13:11.673Z,23.96
2016-04-27T10:14:11.707Z,23.86
2016-04-27T10:15:11.725Z,23.86
2016-04-27T10:16:11.743Z,23.96
2016-04-27T10:17:11.763Z,23.86
2016-04-27T10:18:11.796Z,23.96
2016-04-27T10:19:11.814Z,23.66
2016-04-27T10:20:11.833Z,23.66
2016-04-27T10:21:11.866Z,23.66
2016-04-27T10:22:11.748Z,23.57
2016-04-27T10:23:12.358Z,23.68
2016-04-27T10:24:11.939Z,23.87
2016-04-27T10:25:11.972Z,23.77
2016-04-27T10:26:12.007Z,23.19
2016-04-27T10:27:12.025Z,23.19
2016-04-27T10:28:12.044Z,23.87
2016-04-27T10:29:12.063Z,23.49
2016-04-27T10:30:12.096Z,23.58
2016-04-27T10:31:12.115Z,23.39
2016-04-27T10:32:12.133Z,23.29
2016-04-27T10:33:12.167Z,23.58
2016-04-27T10:34:12.217Z,23
2016-04-27T10:35:12.220Z,23
2016-04-27T10:36:12.237Z,23.1
2016-04-27T10:37:12.272Z,22.72
2016-04-27T10:38:12.603Z,22.71
2016-04-27T10:39:12.324Z,22.91
2016-04-27T10:40:12.342Z,22.53
2016-04-27T10:41:12.375Z,22.33
2016-04-27T10:42:12.379Z,22.82
2016-04-27T10:43:12.413Z,23.01
2016-04-27T10:44:12.291Z,22.91
2016-04-27T10:45:12.465Z,22.43
2016-04-27T10:46:13.858Z,22.53
2016-04-27T10:47:12.517Z,22.53
2016-04-27T10:48:12.552Z,22.33
2016-04-27T10:49:12.569Z,22.53
2016-04-27T10:50:12.588Z,22.72
2016-04-27T10:51:12.638Z,22.53
2016-04-27T10:52:12.655Z,22.63
2016-04-27T10:53:13.033Z,22.43
2016-04-27T10:54:12.693Z,22.53
2016-04-27T10:55:12.727Z,22.43
2016-04-27T10:56:12.745Z,22.91
2016-04-27T10:57:12.762Z,22.14
2016-04-27T10:58:12.797Z,23.01
2016-04-27T10:59:12.831Z,22.53
2016-04-27T11:00:12.853Z,22.53
2016-04-27T11:01:12.886Z,22.43
2016-04-27T11:02:12.905Z,22.43
2016-04-27T11:03:12.924Z,22.43
2016-04-27T11:04:12.958Z,22.43
2016-04-27T11:05:12.977Z,22.53
2016-04-27T11:06:12.994Z,22.82
2016-04-27T11:07:13.027Z,23
2016-04-27T11:08:13.938Z,23.1
2016-04-27T11:09:13.065Z,22.43
2016-04-27T11:10:13.099Z,22.53
2016-04-27T11:11:13.133Z,22.53
2016-04-27T11:12:13.166Z,22.53
2016-04-27T11:13:13.185Z,22.91
2016-04-27T11:14:13.219Z,22.63
2016-04-27T11:15:13.221Z,22.63
2016-04-27T11:16:13.271Z,22.43
2016-04-27T11:17:13.273Z,22.82
2016-04-27T11:18:13.308Z,23.01
2016-04-27T11:19:13.326Z,23.58
2016-04-27T11:20:13.360Z,23.19
2016-04-27T11:21:13.378Z,23.68
2016-04-27T11:22:13.397Z,23.68
2016-04-27T11:23:13.728Z,23.66
2016-04-27T11:24:13.464Z,23.96
2016-04-27T11:25:13.483Z,23.66
2016-04-27T11:26:13.517Z,23.77
2016-04-27T11:27:13.535Z,23.66
2016-04-27T11:28:13.584Z,23.77
2016-04-27T11:29:13.587Z,23.97
2016-04-27T11:30:13.622Z,23.49
2016-04-27T11:31:13.640Z,23.49
2016-04-27T11:32:13.674Z,23.49
2016-04-27T11:33:13.692Z,23.58
2016-04-27T11:34:13.710Z,23.49
2016-04-27T11:35:13.744Z,23.58
2016-04-27T11:36:13.763Z,23.39
2016-04-27T11:37:13.781Z,23.87
2016-04-27T11:38:14.159Z,23.87
2016-04-27T11:39:13.849Z,23.68
2016-04-27T11:40:13.882Z,23.68
2016-04-27T11:41:13.901Z,23.49
2016-04-27T11:42:13.919Z,23.66
2016-04-27T11:43:13.954Z,23.96
2016-04-27T11:44:13.987Z,23.86
2016-04-27T11:45:13.849Z,23.86
2016-04-27T11:46:14.023Z,23.86
2016-04-27T11:47:14.057Z,23.96
2016-04-27T11:48:14.076Z,23.86
2016-04-27T11:49:14.137Z,23.76
2016-04-27T11:50:14.201Z,23.96
2016-04-27T11:51:14.295Z,23.96
2016-04-27T11:52:14.327Z,24.34
2016-04-27T11:53:14.452Z,23.86
2016-04-27T11:54:14.468Z,23.76
2016-04-27T11:55:14.518Z,23.77
2016-04-27T11:56:14.568Z,23.68
2016-04-27T11:57:14.586Z,23.68
2016-04-27T11:58:14.636Z,23.68
2016-04-27T11:59:14.664Z,23.77
2016-04-27T12:00:14.689Z,23.97
2016-04-27T12:01:14.743Z,23.77
2016-04-27T12:02:14.767Z,23.19
2016-04-27T12:03:14.792Z,23.49
2016-04-27T12:04:14.830Z,23.49
2016-04-27T12:05:14.851Z,23.58
2016-04-27T12:06:14.902Z,23.39
2016-04-27T12:07:14.906Z,23.39
2016-04-27T12:08:14.849Z,23.1
2016-04-27T12:09:16.494Z,23
2016-04-27T12:10:14.998Z,22.53
2016-04-27T12:11:15.017Z,22.63
2016-04-27T12:12:15.051Z,22.82
2016-04-27T12:13:15.070Z,22.91
2016-04-27T12:14:16.652Z,22.43
2016-04-27T12:15:15.124Z,22.72
2016-04-27T12:16:15.174Z,22.33
2016-04-27T12:17:15.192Z,22.82
2016-04-27T12:18:15.211Z,22.72
2016-04-27T12:19:15.229Z,22.33
2016-04-27T12:20:15.248Z,23.01
2016-04-27T12:21:15.282Z,22.53
2016-04-27T12:22:15.315Z,22.33
2016-04-27T12:23:15.318Z,22.53
2016-04-27T12:24:15.369Z,22.53
2016-04-27T12:25:15.371Z,22.33
2016-04-27T12:26:15.405Z,22.63
2016-04-27T12:27:15.423Z,22.72
2016-04-27T12:28:15.457Z,22.82
2016-04-27T12:29:15.490Z,22.82
2016-04-27T12:30:15.524Z,22.63
2016-04-27T12:31:15.543Z,23.11
2016-04-27T12:32:15.562Z,23.11
2016-04-27T12:33:15.610Z,23.19
2016-04-27T12:34:15.613Z,23.29
2016-04-27T12:35:15.679Z,23.5
2016-04-27T12:36:15.665Z,23.49
2016-04-27T12:37:15.700Z,23.39
2016-04-27T12:38:18.734Z,23.29
2016-04-27T12:39:15.737Z,23.19
2016-04-27T12:40:15.771Z,23.39
2016-04-27T12:41:15.804Z,23.49
2016-04-27T12:42:15.823Z,23.49
2016-04-27T12:43:15.841Z,23.39
2016-04-27T12:44:15.859Z,23.39
2016-04-27T12:45:15.909Z,23.49
2016-04-27T12:46:15.927Z,23.39
2016-04-27T12:47:15.961Z,23.97
2016-04-27T12:48:15.980Z,23.49
2016-04-27T12:49:16.013Z,23.49
2016-04-27T12:50:16.031Z,23.39
2016-04-27T12:51:16.050Z,23.29
2016-04-27T12:52:16.068Z,23.87
2016-04-27T12:53:17.977Z,23.77
2016-04-27T12:54:16.230Z,23.97
2016-04-27T12:55:16.169Z,23.87
2016-04-27T12:56:16.188Z,23.77
2016-04-27T12:57:16.222Z,23.97
2016-04-27T12:58:16.235Z,23.19
2016-04-27T12:59:16.269Z,23.39
2016-04-27T13:00:16.303Z,23.39
2016-04-27T13:01:16.320Z,23.87
2016-04-27T13:02:16.340Z,23.29
2016-04-27T13:03:16.373Z,23.29
2016-04-27T13:04:16.392Z,23.39
2016-04-27T13:05:16.410Z,23.77
2016-04-27T13:06:16.444Z,23.19
2016-04-27T13:07:16.477Z,23.58
2016-04-27T13:08:17.980Z,23.58
2016-04-27T13:09:16.530Z,23.68
2016-04-27T13:10:16.548Z,23.77
2016-04-27T13:11:16.583Z,23.87
2016-04-27T13:12:16.601Z,23.97
2016-04-27T13:13:16.650Z,23.77
2016-04-27T13:14:16.653Z,23.97
2016-04-27T13:15:16.687Z,23.97
2016-04-27T13:16:16.705Z,24.07
2016-04-27T13:17:16.739Z,23.77
2016-04-27T13:18:16.773Z,23.77
2016-04-27T13:19:16.042Z,23.58
2016-04-27T13:20:16.810Z,23.58
2016-04-27T13:21:16.844Z,23.68
2016-04-27T13:22:16.862Z,23.97
2016-04-27T13:23:16.911Z,23.39
2016-04-27T13:24:16.914Z,23.49
2016-04-27T13:25:16.932Z,23.59
2016-04-27T13:26:16.951Z,23.01
2016-04-27T13:27:17.001Z,23.21
2016-04-27T13:28:17.019Z,22.72
2016-04-27T13:29:17.037Z,22.53
2016-04-27T13:30:17.071Z,22.63
2016-04-27T13:31:17.089Z,22.64
2016-04-27T13:32:17.123Z,22.64
2016-04-27T13:33:17.142Z,22.74
2016-04-27T13:34:17.175Z,22.83
2016-04-27T13:35:17.209Z,22.83
2016-04-27T13:36:17.228Z,22.54
2016-04-27T13:37:17.262Z,22.34
2016-04-27T13:38:17.139Z,22.54
2016-04-27T13:39:17.298Z,22.34
2016-04-27T13:40:17.332Z,22.16
2016-04-27T13:41:17.350Z,22.44
2016-04-27T13:42:17.385Z,22.44
2016-04-27T13:43:17.419Z,22.25
2016-04-27T13:44:17.437Z,22.25
2016-04-27T13:45:17.455Z,22.44
2016-04-27T13:46:17.488Z,22.34
2016-04-27T13:47:17.523Z,22.54
2016-04-27T13:48:17.557Z,22.34
2016-04-27T13:49:17.559Z,22.25
2016-04-27T13:50:17.578Z,22.54
2016-04-27T13:51:17.611Z,22.33
2016-04-27T13:52:17.661Z,22.82
2016-04-27T13:53:17.524Z,22.63
2016-04-27T13:54:17.604Z,22.63
2016-04-27T13:55:17.716Z,22.91
2016-04-27T13:56:17.735Z,23.01
2016-04-27T13:57:17.785Z,23.5
2016-04-27T13:58:17.802Z,23.5
2016-04-27T13:59:17.837Z,23.49
2016-04-27T14:00:17.854Z,23.77
2016-04-27T14:01:17.748Z,23.1
2016-04-27T14:02:17.890Z,23.77
2016-04-27T14:03:17.925Z,23.68
2016-04-27T14:04:17.960Z,23.58
2016-04-27T14:05:17.978Z,23.77
2016-04-27T14:06:17.995Z,23.97
2016-04-27T14:07:17.873Z,23.97
2016-04-27T14:08:18.095Z,23.68
2016-04-27T14:09:17.926Z,24.07
2016-04-27T14:10:18.116Z,23.97
2016-04-27T14:11:18.134Z,23.96
2016-04-27T14:12:18.168Z,23.86
2016-04-27T14:13:18.187Z,23.96
2016-04-27T14:14:18.205Z,24.24
2016-04-27T14:15:18.239Z,24.24
2016-04-27T14:16:18.257Z,24.15
2016-04-27T14:17:18.285Z,24.05
2016-04-27T14:18:18.325Z,24.44
2016-04-27T14:19:18.345Z,24.15
2016-04-27T14:20:18.379Z,24.24
2016-04-27T14:21:18.397Z,24.34
2016-04-27T14:22:18.414Z,24.34
2016-04-27T14:23:22.063Z,24.34
2016-04-27T14:24:18.753Z,24.15
2016-04-27T14:25:18.505Z,24.15
2016-04-27T14:26:18.540Z,24.15
2016-04-27T14:27:18.558Z,24.15
2016-04-27T14:28:18.592Z,24.24
2016-04-27T14:29:18.595Z,24.15
2016-04-27T14:30:18.629Z,24.15
2016-04-27T14:31:18.647Z,24.05
2016-04-27T14:32:18.680Z,23.86
2016-04-27T14:33:18.715Z,23.96
2016-04-27T14:34:18.733Z,23.86
2016-04-27T14:35:18.767Z,24.15
2016-04-27T14:36:18.802Z,23.86
2016-04-27T14:37:18.804Z,24.16
2016-04-27T14:38:19.197Z,23.96
2016-04-27T14:39:18.699Z,23.97
2016-04-27T14:40:18.890Z,23.97
2016-04-27T14:41:18.908Z,23.97
2016-04-27T14:42:18.927Z,24.07
2016-04-27T14:43:18.976Z,23.87
2016-04-27T14:44:18.979Z,23.97
2016-04-27T14:45:19.013Z,24.16
2016-04-27T14:46:19.047Z,23.68
2016-04-27T14:47:19.081Z,23.97
2016-04-27T14:48:19.099Z,23.97
2016-04-27T14:49:19.133Z,23.77
2016-04-27T14:50:19.151Z,23.58
2016-04-27T14:51:19.170Z,23.68
2016-04-27T14:52:19.204Z,23.68
2016-04-27T14:53:19.612Z,23.77
2016-04-27T14:54:19.255Z,23.77
2016-04-27T14:55:19.275Z,23.77
2016-04-27T14:56:19.292Z,23.77
2016-04-27T14:57:19.327Z,23.68
2016-04-27T14:58:19.345Z,23.77
2016-04-27T14:59:19.378Z,23.58
2016-04-27T15:00:19.397Z,23.68
2016-04-27T15:01:19.415Z,23.58
2016-04-27T15:02:19.465Z,23.68
2016-04-27T15:03:19.483Z,23.87
2016-04-27T15:04:19.517Z,23.87
2016-04-27T15:05:19.535Z,23.97
2016-04-27T15:06:19.569Z,23.77
2016-04-27T15:07:19.588Z,23.87
2016-04-27T15:08:20.606Z,24.07
2016-04-27T15:09:20.140Z,23.87
2016-04-27T15:10:19.657Z,24.16
2016-04-27T15:11:19.676Z,23.87
2016-04-27T15:12:19.710Z,23.97
2016-04-27T15:13:19.745Z,23.97
2016-04-27T15:14:19.762Z,23.87
2016-04-27T15:15:19.781Z,23.58
2016-04-27T15:16:19.815Z,23.68
2016-04-27T15:17:19.834Z,23.68
2016-04-27T15:18:19.867Z,23.77
2016-04-27T15:19:19.886Z,23.58
2016-04-27T15:20:19.920Z,23.77
2016-04-27T15:21:19.953Z,23.77
2016-04-27T15:22:19.973Z,23.77
2016-04-27T15:23:19.976Z,23.87
2016-04-27T15:24:19.868Z,23.87
2016-04-27T15:25:20.090Z,23.87
2016-04-27T15:26:20.076Z,23.49
2016-04-27T15:27:20.096Z,23.4
2016-04-27T15:28:20.115Z,23.88
2016-04-27T15:29:20.148Z,23.19
2016-04-27T15:30:20.181Z,23.4
2016-04-27T15:31:20.200Z,23.88
2016-04-27T15:32:20.218Z,23.21
2016-04-27T15:33:20.252Z,23.77
2016-04-27T15:34:20.255Z,23.19
2016-04-27T15:35:20.289Z,23.88
2016-04-27T15:36:20.323Z,23.4
2016-04-27T15:37:20.341Z,23.87
2016-04-27T15:38:20.375Z,23.87
2016-04-27T15:39:20.783Z,23.77
2016-04-27T15:40:20.411Z,23.77
2016-04-27T15:41:20.446Z,23.77
2016-04-27T15:42:20.480Z,23.77
2016-04-27T15:43:20.497Z,23.68
2016-04-27T15:44:20.532Z,23.77
2016-04-27T15:45:20.566Z,23.77
2016-04-27T15:46:20.568Z,23.68
2016-04-27T15:47:20.602Z,23.58
2016-04-27T15:48:20.636Z,24.07
2016-04-27T15:49:20.655Z,24.07
2016-04-27T15:50:19.939Z,23.87
2016-04-27T15:51:20.707Z,23.87
2016-04-27T15:52:20.726Z,23.58
2016-04-27T15:53:20.759Z,23.87
2016-04-27T15:54:20.777Z,23.97
2016-04-27T15:55:20.811Z,24.24
2016-04-27T15:56:20.846Z,24.15
2016-04-27T15:57:20.865Z,24.15
2016-04-27T15:58:20.882Z,24.15
2016-04-27T15:59:20.915Z,24.34
2016-04-27T16:00:20.934Z,24.34
2016-04-27T16:01:20.953Z,24.44
2016-04-27T16:02:20.987Z,24.73
2016-04-27T16:03:21.021Z,24.92
2016-04-27T16:04:21.039Z,24.82
2016-04-27T16:05:21.073Z,24.92
2016-04-27T16:06:21.091Z,24.82
2016-04-27T16:07:21.125Z,24.81
2016-04-27T16:08:21.144Z,25.01
2016-04-27T16:09:21.724Z,24.91
2016-04-27T16:10:21.195Z,25.01
2016-04-27T16:11:21.230Z,24.81
2016-04-27T16:12:21.248Z,25.01
2016-04-27T16:13:21.266Z,25.1
2016-04-27T16:14:21.285Z,25.1
2016-04-27T16:15:21.318Z,24.91
2016-04-27T16:16:21.352Z,25.1
2016-04-27T16:17:21.371Z,25.1
2016-04-27T16:18:21.405Z,24.91
2016-04-27T16:19:21.423Z,24.91
2016-04-27T16:20:21.457Z,25.01
2016-04-27T16:21:21.475Z,24.81
2016-04-27T16:22:21.493Z,25.01
2016-04-27T16:23:21.527Z,24.91
2016-04-27T16:24:21.561Z,25.01
2016-04-27T16:25:21.580Z,25.01
2016-04-27T16:26:21.599Z,24.91
2016-04-27T16:27:21.632Z,24.91
2016-04-27T16:28:21.651Z,24.91
2016-04-27T16:29:21.684Z,25.01
2016-04-27T16:30:21.703Z,25.01
2016-04-27T16:31:21.737Z,25.1
2016-04-27T16:32:21.770Z,25.01
2016-04-27T16:33:21.789Z,25.01
2016-04-27T16:34:21.823Z,24.91
2016-04-27T16:35:21.826Z,24.72
2016-04-27T16:36:21.875Z,25.01
2016-04-27T16:37:21.878Z,24.72
2016-04-27T16:38:21.912Z,24.91
2016-04-27T16:39:21.945Z,25.01
2016-04-27T16:40:21.964Z,24.81
2016-04-27T16:41:21.998Z,24.81
2016-04-27T16:42:22.031Z,24.92
2016-04-27T16:43:22.034Z,24.82
2016-04-27T16:44:22.069Z,24.44
2016-04-27T16:45:22.102Z,24.15
2016-04-27T16:46:22.122Z,24.34
2016-04-27T16:47:22.139Z,24.24
2016-04-27T16:48:22.158Z,24.24
2016-04-27T16:49:22.191Z,24.15
2016-04-27T16:50:22.210Z,24.84
2016-04-27T16:51:22.243Z,24.15
2016-04-27T16:52:22.262Z,24.15
2016-04-27T16:53:22.296Z,24.05
2016-04-27T16:54:22.330Z,23.96
2016-04-27T16:55:22.348Z,23.96
2016-04-27T16:56:22.382Z,23.96
2016-04-27T16:57:22.416Z,23.97
2016-04-27T16:58:22.434Z,23.97
2016-04-27T16:59:22.437Z,23.97
2016-04-27T17:00:22.470Z,23.87
2016-04-27T17:01:22.505Z,23.97
2016-04-27T17:02:22.539Z,23.97
2016-04-27T17:03:22.557Z,23.87
2016-04-27T17:04:22.575Z,23.96
2016-04-27T17:05:22.593Z,24.15
2016-04-27T17:06:22.628Z,24.05
2016-04-27T17:07:22.661Z,24.15
2016-04-27T17:08:22.695Z,24.24
2016-04-27T17:09:22.823Z,24.05
2016-04-27T17:10:22.731Z,24.15
2016-04-27T17:11:22.751Z,24.05
2016-04-27T17:12:22.769Z,24.24
2016-04-27T17:13:22.803Z,24.34
2016-04-27T17:14:22.822Z,24.34
2016-04-27T17:15:22.855Z,24.34
2016-04-27T17:16:22.889Z,24.05
2016-04-27T17:17:22.908Z,24.44
2016-04-27T17:18:22.941Z,24.44
2016-04-27T17:19:22.960Z,24.34
2016-04-27T17:20:22.977Z,24.24
2016-04-27T17:21:23.011Z,24.44
2016-04-27T17:22:23.030Z,24.24
2016-04-27T17:23:23.063Z,24.44
2016-04-27T17:24:22.941Z,24.54
2016-04-27T17:25:23.116Z,25.02
2016-04-27T17:26:23.135Z,24.92
2016-04-27T17:27:23.168Z,24.92
2016-04-27T17:28:23.187Z,24.92
2016-04-27T17:29:23.221Z,24.81
2016-04-27T17:30:23.239Z,24.82
2016-04-27T17:31:23.273Z,25.1
2016-04-27T17:32:23.307Z,24.92
2016-04-27T17:33:23.310Z,24.91
2016-04-27T17:34:23.328Z,24.73
2016-04-27T17:35:23.362Z,24.92
2016-04-27T17:36:23.396Z,24.82
2016-04-27T17:37:23.415Z,25.02
2016-04-27T17:38:23.448Z,24.82
2016-04-27T17:39:23.467Z,25.02
2016-04-27T17:40:23.500Z,24.92
2016-04-27T17:41:23.519Z,24.82
2016-04-27T17:42:23.553Z,24.73
2016-04-27T17:43:23.587Z,24.72
2016-04-27T17:44:23.605Z,24.82
2016-04-27T17:45:23.639Z,24.82
2016-04-27T17:46:23.657Z,24.81
2016-04-27T17:47:23.519Z,24.91
2016-04-27T17:48:23.709Z,25.1
2016-04-27T17:49:23.728Z,25.2
2016-04-27T17:50:23.747Z,25.01
2016-04-27T17:51:23.796Z,25.2
2016-04-27T17:52:23.799Z,25.1
2016-04-27T17:53:23.816Z,25.01
2016-04-27T17:54:24.100Z,25.01
2016-04-27T17:55:24.963Z,25.01
2016-04-27T17:56:23.902Z,25.1
2016-04-27T17:57:23.937Z,25.1
2016-04-27T17:58:23.955Z,25.1
2016-04-27T17:59:23.974Z,24.91
2016-04-27T18:00:24.007Z,25.01
2016-04-27T18:01:24.026Z,25.1
2016-04-27T18:02:24.059Z,25.1
2016-04-27T18:03:24.078Z,24.91
2016-04-27T18:04:24.096Z,25.01
2016-04-27T18:05:24.146Z,25.1
2016-04-27T18:06:24.165Z,25.1
2016-04-27T18:07:24.182Z,25.1
2016-04-27T18:08:24.201Z,25.29
2016-04-27T18:09:24.673Z,25.2
2016-04-27T18:10:24.285Z,25.49
2016-04-27T18:11:24.287Z,25.2
2016-04-27T18:12:24.320Z,25.49
2016-04-27T18:13:24.340Z,25.78
2016-04-27T18:14:24.358Z,25.86
2016-04-27T18:15:24.375Z,25.96
2016-04-27T18:16:24.410Z,26.25
2016-04-27T18:17:24.445Z,26.34
2016-04-27T18:18:24.461Z,26.54
2016-04-27T18:19:24.497Z,26.73
2016-04-27T18:20:24.514Z,26.53
2016-04-27T18:21:24.548Z,26.72
2016-04-27T18:22:24.566Z,27.01
2016-04-27T18:23:24.585Z,27.68
2016-04-27T18:24:24.697Z,27.48
2016-04-27T18:25:24.480Z,27.57
2016-04-27T18:26:24.671Z,28.05
2016-04-27T18:27:24.689Z,28.25
2016-04-27T18:28:24.739Z,28.63
2016-04-27T18:29:24.742Z,28.15
2016-04-27T18:30:24.776Z,28.52
2016-04-27T18:31:24.794Z,28.52
2016-04-27T18:32:24.813Z,28.62
2016-04-27T18:33:24.846Z,29.39
2016-04-27T18:34:24.865Z,28.89
2016-04-27T18:35:24.899Z,29.08
2016-04-27T18:36:24.917Z,29.38
2016-04-27T18:37:24.951Z,29.57
2016-04-27T18:38:24.968Z,29.57
2016-04-27T18:39:25.128Z,29.95
2016-04-27T18:40:25.537Z,29.65
2016-04-27T18:41:25.040Z,30.13
2016-04-27T18:42:25.090Z,30.22
2016-04-27T18:43:25.107Z,30.32
2016-04-27T18:44:25.146Z,30.52
2016-04-27T18:45:25.149Z,30.42
2016-04-27T18:46:25.166Z,30.9
2016-04-27T18:47:25.200Z,30.88
2016-04-27T18:48:25.219Z,30.88
2016-04-27T18:49:25.252Z,31.08
2016-04-27T18:50:25.271Z,31.08
2016-04-27T18:51:25.305Z,31.27
2016-04-27T18:52:25.324Z,31.56
2016-04-27T18:53:25.342Z,32.14
2016-04-27T18:54:25.219Z,32.21
2016-04-27T18:55:25.410Z,32.41
2016-04-27T18:56:25.428Z,32.6
2016-04-27T18:57:25.446Z,32.79
2016-04-27T18:58:25.309Z,32.87
2016-04-27T18:59:25.498Z,32.78
2016-04-27T19:00:25.517Z,33.54
2016-04-27T19:01:25.550Z,33.45
2016-04-27T19:02:25.584Z,33.26
2016-04-27T19:03:25.587Z,33.74
2016-04-27T19:04:25.621Z,33.54
2016-04-27T19:05:25.671Z,33.64
2016-04-27T19:06:25.689Z,34.22
2016-04-27T19:07:25.692Z,34.22
2016-04-27T19:08:25.726Z,34.11
2016-04-27T19:09:25.744Z,34.68
2016-04-27T19:10:26.231Z,34.59
2016-04-27T19:11:25.797Z,34.3
2016-04-27T19:12:25.814Z,35.06
2016-04-27T19:13:25.849Z,34.59
2016-04-27T19:14:25.867Z,34.49
2016-04-27T19:15:25.886Z,34.88
2016-04-27T19:16:25.903Z,35.16
2016-04-27T19:17:25.953Z,34.97
2016-04-27T19:18:25.955Z,34.88
2016-04-27T19:19:25.990Z,34.88
2016-04-27T19:20:26.008Z,34.88
2016-04-27T19:21:26.027Z,34.88
2016-04-27T19:22:26.052Z,34.97
2016-04-27T19:23:26.087Z,34.88
2016-04-27T19:24:26.120Z,35.06
2016-04-27T19:25:26.123Z,34.97
2016-04-27T19:26:26.173Z,35.34
2016-04-27T19:27:26.176Z,35.34
2016-04-27T19:28:26.193Z,35.05
2016-04-27T19:29:26.228Z,35.34
2016-04-27T19:30:26.245Z,35.43
2016-04-27T19:31:26.280Z,35.05
2016-04-27T19:32:26.314Z,35.34
2016-04-27T19:33:26.332Z,35.91
2016-04-27T19:34:26.334Z,35.82
2016-04-27T19:35:26.369Z,35.82
2016-04-27T19:36:26.386Z,35.82
2016-04-27T19:37:26.406Z,35.82
2016-04-27T19:38:26.423Z,35.63
2016-04-27T19:39:26.348Z,35.63
2016-04-27T19:40:26.491Z,35.43
2016-04-27T19:41:26.511Z,35.63
2016-04-27T19:42:26.528Z,35.53
2016-04-27T19:43:26.547Z,35.53
2016-04-27T19:44:26.580Z,35.34
2016-04-27T19:45:26.599Z,35.34
2016-04-27T19:46:26.632Z,35.63
2016-04-27T19:47:26.651Z,35.63
2016-04-27T19:48:26.669Z,35.53
2016-04-27T19:49:26.750Z,36.11
2016-04-27T19:50:26.722Z,35.63
2016-04-27T19:51:26.740Z,35.72
2016-04-27T19:52:26.774Z,35.91
2016-04-27T19:53:26.793Z,35.72
2016-04-27T19:54:26.810Z,35.34
2016-04-27T19:55:26.876Z,36.09
2016-04-27T19:56:26.879Z,36.01
2016-04-27T19:57:26.881Z,35.89
2016-04-27T19:58:26.899Z,35.61
2016-04-27T19:59:26.949Z,36.18
2016-04-27T20:00:26.951Z,35.89
2016-04-27T20:01:26.970Z,35.89
2016-04-27T20:02:27.004Z,35.89
2016-04-27T20:03:27.022Z,35.99
2016-04-27T20:04:27.040Z,35.71
2016-04-27T20:05:27.090Z,35.99
2016-04-27T20:06:27.092Z,36.47
2016-04-27T20:07:27.126Z,35.71
2016-04-27T20:08:27.129Z,35.8
2016-04-27T20:09:27.164Z,35.89
2016-04-27T20:10:27.416Z,35.99
2016-04-27T20:11:27.216Z,35.89
2016-04-27T20:12:27.234Z,35.51
2016-04-27T20:13:27.252Z,35.8
2016-04-27T20:14:27.302Z,35.89
2016-04-27T20:15:27.305Z,35.89
2016-04-27T20:16:27.338Z,36.18
2016-04-27T20:17:27.341Z,36.09
2016-04-27T20:18:27.375Z,36.28
2016-04-27T20:19:27.394Z,35.99
2016-04-27T20:20:27.411Z,35.99
2016-04-27T20:21:27.446Z,35.71
2016-04-27T20:22:27.739Z,35.99
2016-04-27T20:23:27.475Z,35.8
2016-04-27T20:24:27.493Z,35.8
2016-04-27T20:25:27.526Z,35.32
2016-04-27T20:26:27.530Z,36.09
2016-04-27T20:27:27.579Z,35.99
2016-04-27T20:28:27.597Z,35.8
2016-04-27T20:29:27.616Z,35.99
2016-04-27T20:30:27.634Z,36.38
2016-04-27T20:31:27.651Z,35.89
2016-04-27T20:32:27.702Z,35.99
2016-04-27T20:33:27.704Z,35.8
2016-04-27T20:34:27.723Z,36.28
2016-04-27T20:35:27.756Z,35.89
2016-04-27T20:36:27.776Z,35.8
2016-04-27T20:37:27.793Z,35.99
2016-04-27T20:38:27.828Z,35.71
2016-04-27T20:39:27.845Z,35.8
2016-04-27T20:40:27.723Z,35.8
2016-04-27T20:41:27.897Z,36.18
2016-04-27T20:42:27.917Z,35.89
2016-04-27T20:43:27.934Z,36.09
2016-04-27T20:44:27.984Z,35.99
2016-04-27T20:45:27.986Z,36.09
2016-04-27T20:46:28.005Z,36.09
2016-04-27T20:47:28.023Z,36.47
2016-04-27T20:48:28.058Z,36.09
2016-04-27T20:49:28.075Z,36.18
2016-04-27T20:50:28.094Z,35.89
2016-04-27T20:51:28.127Z,35.99
2016-04-27T20:52:28.146Z,36.28
2016-04-27T20:53:28.164Z,36.09
2016-04-27T20:54:28.203Z,36.09
2016-04-27T20:55:28.889Z,36.18
2016-04-27T20:56:28.342Z,36.28
2016-04-27T20:57:28.389Z,35.8
2016-04-27T20:58:28.466Z,36.28
2016-04-27T20:59:28.525Z,36.18
2016-04-27T21:00:28.559Z,36.28
2016-04-27T21:01:28.609Z,36.38
2016-04-27T21:02:28.643Z,36.18
2016-04-27T21:03:28.678Z,36.18
2016-04-27T21:04:28.710Z,36.07
2016-04-27T21:05:28.750Z,36.46
2016-04-27T21:06:28.774Z,36.36
2016-04-27T21:07:28.799Z,36.66
2016-04-27T21:08:28.822Z,36.46
2016-04-27T21:09:28.863Z,36.38
2016-04-27T21:10:30.835Z,36.46
2016-04-27T21:11:28.904Z,36.36
2016-04-27T21:12:28.923Z,36.55
2016-04-27T21:13:28.961Z,36.55
2016-04-27T21:14:28.980Z,36.38
2016-04-27T21:15:29.000Z,36.55
2016-04-27T21:16:29.019Z,36.57
2016-04-27T21:17:29.054Z,36.84
2016-04-27T21:18:29.088Z,36.65
2016-04-27T21:19:29.108Z,36.47
2016-04-27T21:20:29.126Z,36.55
2016-04-27T21:21:29.161Z,36.66
2016-04-27T21:22:29.164Z,36.66
2016-04-27T21:23:29.197Z,36.65
2016-04-27T21:24:29.201Z,36.16
2016-04-27T21:25:33.364Z,36.65
2016-04-27T21:26:29.263Z,36.84
2016-04-27T21:27:30.269Z,36.65
2016-04-27T21:28:29.309Z,36.55
2016-04-27T21:29:29.359Z,36.65
2016-04-27T21:30:29.345Z,36.84
2016-04-27T21:31:29.363Z,36.46
2016-04-27T21:32:29.398Z,36.84
2016-04-27T21:33:29.415Z,36.74
2016-04-27T21:34:29.433Z,36.84
2016-04-27T21:35:29.453Z,36.74
2016-04-27T21:36:29.470Z,36.84
2016-04-27T21:37:29.503Z,36.65
2016-04-27T21:38:29.522Z,36.46
2016-04-27T21:39:29.541Z,36.46
2016-04-27T21:40:30.934Z,36.74
2016-04-27T21:41:29.594Z,36.74
2016-04-27T21:42:29.611Z,36.55
2016-04-27T21:43:29.645Z,36.55
2016-04-27T21:44:29.663Z,36.36
2016-04-27T21:45:29.683Z,36.84
2016-04-27T21:46:29.700Z,37.13
2016-04-27T21:47:29.735Z,36.65
2016-04-27T21:48:29.752Z,36.65
2016-04-27T21:49:29.771Z,36.36
2016-04-27T21:50:29.789Z,36.74
2016-04-27T21:51:29.824Z,36.65
2016-04-27T21:52:29.826Z,36.84
2016-04-27T21:53:29.854Z,36.84
2016-04-27T21:54:29.873Z,36.74
2016-04-27T21:55:30.110Z,36.84
2016-04-27T21:56:29.925Z,36.84
2016-04-27T21:57:29.958Z,36.65
2016-04-27T21:58:29.976Z,36.55
2016-04-27T21:59:29.995Z,36.74
2016-04-27T22:00:30.014Z,36.84
2016-04-27T22:01:30.047Z,36.55
2016-04-27T22:02:30.066Z,36.65
2016-04-27T22:03:30.084Z,36.65
2016-04-27T22:04:30.103Z,36.26
2016-04-27T22:05:30.120Z,36.16
2016-04-27T22:06:30.155Z,36.46
2016-04-27T22:07:30.173Z,36.26
2016-04-27T22:08:30.192Z,36.46
2016-04-27T22:09:30.210Z,36.26
2016-04-27T22:10:32.196Z,36.46
2016-04-27T22:11:30.261Z,36.26
2016-04-27T22:12:30.280Z,35.97
2016-04-27T22:13:30.314Z,36.26
2016-04-27T22:14:30.316Z,36.16
2016-04-27T22:15:30.351Z,36.26
2016-04-27T22:16:30.368Z,36.36
2016-04-27T22:17:30.388Z,36.36
2016-04-27T22:18:30.421Z,36.26
2016-04-27T22:19:30.440Z,36.16
2016-04-27T22:20:30.473Z,36.16
2016-04-27T22:21:30.492Z,36.16
2016-04-27T22:22:30.509Z,35.97
2016-04-27T22:23:30.529Z,36.55
2016-04-27T22:24:30.562Z,36.46
2016-04-27T22:25:31.206Z,36.46
2016-04-27T22:26:30.598Z,36.16
2016-04-27T22:27:30.618Z,36.36
2016-04-27T22:28:30.651Z,35.97
2016-04-27T22:29:30.669Z,36.36
2016-04-27T22:30:30.687Z,36.46
2016-04-27T22:31:30.722Z,36.36
2016-04-27T22:32:30.725Z,36.16
2016-04-27T22:33:30.758Z,36.26
2016-04-27T22:34:30.777Z,36.36
2016-04-27T22:35:30.810Z,36.36
2016-04-27T22:36:30.829Z,36.46
2016-04-27T22:37:30.848Z,36.16
2016-04-27T22:38:30.866Z,36.55
2016-04-27T22:39:30.883Z,36.36
2016-04-27T22:40:31.122Z,36.46
2016-04-27T22:41:30.935Z,36.55
2016-04-27T22:42:30.955Z,36.55
2016-04-27T22:43:30.972Z,36.55
2016-04-27T22:44:31.022Z,36.46